sensor_id;sensor_type;location;lat;lon;timestamp;P1;durP1;ratioP1;P2;durP2;ratioP2
21886;SDS011;11108;49.988;8.182;2024-02-28T00:00:25;3.77;;;3.50;;
21886;SDS011;11108;49.988;8.182;2024-02-28T00:02:50;3.47;;;3.20;;
21886;SDS011;11108;49.988;8.182;2024-02-28T00:05:15;4.90;;;3.33;;
21886;SDS011;11108;49.988;8.182;2024-02-28T00:07:41;3.30;;;3.10;;
21886;SDS011;11108;49.988;8.182;2024-02-28T00:10:06;3.20;;;3.10;;
21886;SDS011;11108;49.988;8.182;2024-02-28T00:12:31;3.40;;;3.17;;
21886;SDS011;11108;49.988;8.182;2024-02-28T00:14:56;3.63;;;3.37;;
21886;SDS011;11108;49.988;8.182;2024-02-28T00:17:22;3.93;;;3.10;;
21886;SDS011;11108;49.988;8.182;2024-02-28T00:19:47;3.53;;;3.30;;
21886;SDS011;11108;49.988;8.182;2024-02-28T00:22:12;3.27;;;3.07;;
21886;SDS011;11108;49.988;8.182;2024-02-28T00:24:38;3.40;;;3.20;;
21886;SDS011;11108;49.988;8.182;2024-02-28T00:27:03;3.43;;;3.13;;
21886;SDS011;11108;49.988;8.182;2024-02-28T00:29:28;3.87;;;3.50;;
21886;SDS011;11108;49.988;8.182;2024-02-28T00:31:53;3.80;;;3.50;;
21886;SDS011;11108;49.988;8.182;2024-02-28T00:34:19;3.30;;;3.10;;
21886;SDS011;11108;49.988;8.182;2024-02-28T00:36:44;3.57;;;3.27;;
21886;SDS011;11108;49.988;8.182;2024-02-28T00:39:10;3.90;;;3.60;;
21886;SDS011;11108;49.988;8.182;2024-02-28T00:41:35;3.40;;;3.20;;
21886;SDS011;11108;49.988;8.182;2024-02-28T00:44:01;3.07;;;2.87;;
21886;SDS011;11108;49.988;8.182;2024-02-28T00:46:27;3.97;;;3.67;;
21886;SDS011;11108;49.988;8.182;2024-02-28T00:48:52;3.80;;;3.50;;
21886;SDS011;11108;49.988;8.182;2024-02-28T00:51:17;3.60;;;3.30;;
21886;SDS011;11108;49.988;8.182;2024-02-28T00:53:43;3.00;;;2.80;;
21886;SDS011;11108;49.988;8.182;2024-02-28T00:56:08;3.00;;;2.80;;
21886;SDS011;11108;49.988;8.182;2024-02-28T00:58:33;3.77;;;3.50;;
21886;SDS011;11108;49.988;8.182;2024-02-28T01:00:58;3.20;;;3.00;;
21886;SDS011;11108;49.988;8.182;2024-02-28T01:03:24;3.57;;;3.27;;
21886;SDS011;11108;49.988;8.182;2024-02-28T01:05:49;3.50;;;3.30;;
21886;SDS011;11108;49.988;8.182;2024-02-28T01:08:15;3.60;;;3.30;;
21886;SDS011;11108;49.988;8.182;2024-02-28T01:10:42;3.40;;;3.10;;
21886;SDS011;11108;49.988;8.182;2024-02-28T01:13:07;3.20;;;3.00;;
21886;SDS011;11108;49.988;8.182;2024-02-28T01:15:32;3.20;;;3.00;;
21886;SDS011;11108;49.988;8.182;2024-02-28T01:17:58;3.60;;;3.30;;
21886;SDS011;11108;49.988;8.182;2024-02-28T01:20:23;3.33;;;3.13;;
21886;SDS011;11108;49.988;8.182;2024-02-28T01:22:48;3.53;;;3.23;;
21886;SDS011;11108;49.988;8.182;2024-02-28T01:25:14;3.50;;;3.27;;
21886;SDS011;11108;49.988;8.182;2024-02-28T01:27:39;3.00;;;2.90;;
21886;SDS011;11108;49.988;8.182;2024-02-28T01:30:05;2.97;;;2.87;;
21886;SDS011;11108;49.988;8.182;2024-02-28T01:32:34;3.30;;;3.10;;
21886;SDS011;11108;49.988;8.182;2024-02-28T01:34:59;3.30;;;3.10;;
21886;SDS011;11108;49.988;8.182;2024-02-28T01:37:24;3.40;;;3.10;;
21886;SDS011;11108;49.988;8.182;2024-02-28T01:39:49;3.30;;;3.10;;
21886;SDS011;11108;49.988;8.182;2024-02-28T01:42:14;3.20;;;3.00;;
21886;SDS011;11108;49.988;8.182;2024-02-28T01:44:42;3.23;;;3.07;;
21886;SDS011;11108;49.988;8.182;2024-02-28T01:47:08;3.03;;;2.80;;
21886;SDS011;11108;49.988;8.182;2024-02-28T01:49:33;3.33;;;3.10;;
21886;SDS011;11108;49.988;8.182;2024-02-28T01:51:58;3.40;;;3.20;;
21886;SDS011;11108;49.988;8.182;2024-02-28T01:54:23;3.30;;;3.10;;
21886;SDS011;11108;49.988;8.182;2024-02-28T01:56:49;3.13;;;2.93;;
21886;SDS011;11108;49.988;8.182;2024-02-28T01:59:14;3.20;;;2.97;;
21886;SDS011;11108;49.988;8.182;2024-02-28T02:01:43;3.10;;;2.90;;
21886;SDS011;11108;49.988;8.182;2024-02-28T02:04:08;4.67;;;3.10;;
21886;SDS011;11108;49.988;8.182;2024-02-28T02:06:33;4.30;;;2.77;;
21886;SDS011;11108;49.988;8.182;2024-02-28T02:09:01;3.53;;;3.23;;
21886;SDS011;11108;49.988;8.182;2024-02-28T02:11:27;3.43;;;3.13;;
21886;SDS011;11108;49.988;8.182;2024-02-28T02:13:53;3.50;;;2.93;;
21886;SDS011;11108;49.988;8.182;2024-02-28T02:16:18;3.10;;;2.80;;
21886;SDS011;11108;49.988;8.182;2024-02-28T02:18:44;3.53;;;3.30;;
21886;SDS011;11108;49.988;8.182;2024-02-28T02:21:09;3.20;;;3.00;;
21886;SDS011;11108;49.988;8.182;2024-02-28T02:23:36;3.20;;;2.90;;
21886;SDS011;11108;49.988;8.182;2024-02-28T02:26:06;3.60;;;3.40;;
21886;SDS011;11108;49.988;8.182;2024-02-28T02:28:31;3.20;;;3.00;;
21886;SDS011;11108;49.988;8.182;2024-02-28T02:30:56;3.47;;;3.27;;
21886;SDS011;11108;49.988;8.182;2024-02-28T02:33:21;2.90;;;2.73;;
21886;SDS011;11108;49.988;8.182;2024-02-28T02:35:46;2.80;;;2.70;;
21886;SDS011;11108;49.988;8.182;2024-02-28T02:38:12;3.63;;;3.33;;
21886;SDS011;11108;49.988;8.182;2024-02-28T02:40:37;3.30;;;3.10;;
21886;SDS011;11108;49.988;8.182;2024-02-28T02:43:02;2.90;;;2.70;;
21886;SDS011;11108;49.988;8.182;2024-02-28T02:45:27;3.10;;;2.87;;
21886;SDS011;11108;49.988;8.182;2024-02-28T02:47:52;3.27;;;3.07;;
21886;SDS011;11108;49.988;8.182;2024-02-28T02:50:18;2.77;;;2.60;;
21886;SDS011;11108;49.988;8.182;2024-02-28T02:52:43;3.10;;;2.90;;
21886;SDS011;11108;49.988;8.182;2024-02-28T02:55:08;3.00;;;2.80;;
21886;SDS011;11108;49.988;8.182;2024-02-28T02:57:33;2.70;;;2.57;;
21886;SDS011;11108;49.988;8.182;2024-02-28T02:59:58;3.43;;;3.23;;
21886;SDS011;11108;49.988;8.182;2024-02-28T03:02:24;3.30;;;3.00;;
21886;SDS011;11108;49.988;8.182;2024-02-28T03:04:49;3.07;;;2.97;;
21886;SDS011;11108;49.988;8.182;2024-02-28T03:07:14;3.07;;;2.87;;
21886;SDS011;11108;49.988;8.182;2024-02-28T03:09:39;2.83;;;2.63;;
21886;SDS011;11108;49.988;8.182;2024-02-28T03:12:04;3.17;;;2.97;;
21886;SDS011;11108;49.988;8.182;2024-02-28T03:14:30;2.63;;;2.53;;
21886;SDS011;11108;49.988;8.182;2024-02-28T03:16:55;2.93;;;2.73;;
21886;SDS011;11108;49.988;8.182;2024-02-28T03:19:21;2.80;;;2.70;;
21886;SDS011;11108;49.988;8.182;2024-02-28T03:21:47;3.20;;;3.00;;
21886;SDS011;11108;49.988;8.182;2024-02-28T03:24:12;2.63;;;2.53;;
21886;SDS011;11108;49.988;8.182;2024-02-28T03:26:37;2.77;;;2.67;;
21886;SDS011;11108;49.988;8.182;2024-02-28T03:29:02;2.97;;;2.77;;
21886;SDS011;11108;49.988;8.182;2024-02-28T03:31:27;2.80;;;2.60;;
21886;SDS011;11108;49.988;8.182;2024-02-28T03:33:53;2.83;;;2.63;;
21886;SDS011;11108;49.988;8.182;2024-02-28T03:36:18;2.77;;;2.60;;
21886;SDS011;11108;49.988;8.182;2024-02-28T03:38:43;3.10;;;2.90;;
21886;SDS011;11108;49.988;8.182;2024-02-28T03:41:08;2.93;;;2.80;;
21886;SDS011;11108;49.988;8.182;2024-02-28T03:43:34;2.87;;;2.77;;
21886;SDS011;11108;49.988;8.182;2024-02-28T03:45:59;2.70;;;2.60;;
21886;SDS011;11108;49.988;8.182;2024-02-28T03:48:24;2.80;;;2.60;;
21886;SDS011;11108;49.988;8.182;2024-02-28T03:50:49;2.63;;;2.53;;
21886;SDS011;11108;49.988;8.182;2024-02-28T03:53:15;2.83;;;2.60;;
21886;SDS011;11108;49.988;8.182;2024-02-28T03:55:40;2.60;;;2.40;;
21886;SDS011;11108;49.988;8.182;2024-02-28T03:58:06;2.80;;;2.70;;
21886;SDS011;11108;49.988;8.182;2024-02-28T04:00:33;3.00;;;2.80;;
21886;SDS011;11108;49.988;8.182;2024-02-28T04:02:59;2.90;;;2.70;;
21886;SDS011;11108;49.988;8.182;2024-02-28T04:05:24;3.23;;;3.03;;
21886;SDS011;11108;49.988;8.182;2024-02-28T04:07:49;3.10;;;2.90;;
21886;SDS011;11108;49.988;8.182;2024-02-28T04:10:14;3.20;;;3.00;;
21886;SDS011;11108;49.988;8.182;2024-02-28T04:12:42;3.20;;;3.00;;
21886;SDS011;11108;49.988;8.182;2024-02-28T04:15:07;3.00;;;2.90;;
21886;SDS011;11108;49.988;8.182;2024-02-28T04:17:32;2.90;;;2.80;;
21886;SDS011;11108;49.988;8.182;2024-02-28T04:19:58;2.87;;;2.70;;
21886;SDS011;11108;49.988;8.182;2024-02-28T04:22:23;2.97;;;2.77;;
21886;SDS011;11108;49.988;8.182;2024-02-28T04:24:48;2.63;;;2.50;;
21886;SDS011;11108;49.988;8.182;2024-02-28T04:27:13;2.77;;;2.67;;
21886;SDS011;11108;49.988;8.182;2024-02-28T04:29:39;2.60;;;2.40;;
21886;SDS011;11108;49.988;8.182;2024-02-28T04:32:04;2.70;;;2.50;;
21886;SDS011;11108;49.988;8.182;2024-02-28T04:34:29;2.50;;;2.40;;
21886;SDS011;11108;49.988;8.182;2024-02-28T04:36:54;2.60;;;2.50;;
21886;SDS011;11108;49.988;8.182;2024-02-28T04:39:20;2.83;;;2.63;;
21886;SDS011;11108;49.988;8.182;2024-02-28T04:41:45;2.63;;;2.53;;
21886;SDS011;11108;49.988;8.182;2024-02-28T04:44:10;2.73;;;2.63;;
21886;SDS011;11108;49.988;8.182;2024-02-28T04:46:36;3.13;;;2.93;;
21886;SDS011;11108;49.988;8.182;2024-02-28T04:49:02;3.33;;;3.07;;
21886;SDS011;11108;49.988;8.182;2024-02-28T04:51:27;3.30;;;3.10;;
21886;SDS011;11108;49.988;8.182;2024-02-28T04:53:52;3.33;;;3.13;;
21886;SDS011;11108;49.988;8.182;2024-02-28T04:56:18;3.10;;;2.90;;
21886;SDS011;11108;49.988;8.182;2024-02-28T04:58:43;2.83;;;2.73;;
21886;SDS011;11108;49.988;8.182;2024-02-28T05:01:08;3.20;;;3.00;;
21886;SDS011;11108;49.988;8.182;2024-02-28T05:03:33;3.07;;;2.63;;
21886;SDS011;11108;49.988;8.182;2024-02-28T05:05:58;3.20;;;3.00;;
21886;SDS011;11108;49.988;8.182;2024-02-28T05:08:24;3.37;;;3.17;;
21886;SDS011;11108;49.988;8.182;2024-02-28T05:10:51;3.13;;;2.93;;
21886;SDS011;11108;49.988;8.182;2024-02-28T05:13:16;2.90;;;2.80;;
21886;SDS011;11108;49.988;8.182;2024-02-28T05:15:41;2.77;;;2.57;;
21886;SDS011;11108;49.988;8.182;2024-02-28T05:18:07;2.67;;;2.57;;
21886;SDS011;11108;49.988;8.182;2024-02-28T05:20:32;3.20;;;3.00;;
21886;SDS011;11108;49.988;8.182;2024-02-28T05:22:57;3.00;;;2.80;;
21886;SDS011;11108;49.988;8.182;2024-02-28T05:25:22;2.70;;;2.50;;
21886;SDS011;11108;49.988;8.182;2024-02-28T05:27:47;3.20;;;3.00;;
21886;SDS011;11108;49.988;8.182;2024-02-28T05:30:13;2.67;;;2.57;;
21886;SDS011;11108;49.988;8.182;2024-02-28T05:32:38;2.40;;;2.30;;
21886;SDS011;11108;49.988;8.182;2024-02-28T05:35:18;2.50;;;2.40;;
21886;SDS011;11108;49.988;8.182;2024-02-28T05:37:44;2.83;;;2.63;;
21886;SDS011;11108;49.988;8.182;2024-02-28T05:40:09;2.83;;;2.73;;
21886;SDS011;11108;49.988;8.182;2024-02-28T05:42:38;2.90;;;2.80;;
21886;SDS011;11108;49.988;8.182;2024-02-28T05:45:06;2.90;;;2.70;;
21886;SDS011;11108;49.988;8.182;2024-02-28T05:47:31;3.17;;;3.00;;
21886;SDS011;11108;49.988;8.182;2024-02-28T05:49:57;2.97;;;2.77;;
21886;SDS011;11108;49.988;8.182;2024-02-28T05:52:23;2.70;;;2.60;;
21886;SDS011;11108;49.988;8.182;2024-02-28T05:54:49;2.90;;;2.80;;
21886;SDS011;11108;49.988;8.182;2024-02-28T05:57:15;2.57;;;2.47;;
21886;SDS011;11108;49.988;8.182;2024-02-28T05:59:40;2.90;;;2.80;;
21886;SDS011;11108;49.988;8.182;2024-02-28T06:02:05;2.93;;;2.73;;
21886;SDS011;11108;49.988;8.182;2024-02-28T06:04:30;2.77;;;2.57;;
21886;SDS011;11108;49.988;8.182;2024-02-28T06:06:55;2.70;;;2.53;;
21886;SDS011;11108;49.988;8.182;2024-02-28T06:09:21;2.40;;;2.30;;
21886;SDS011;11108;49.988;8.182;2024-02-28T06:11:46;2.70;;;2.60;;
21886;SDS011;11108;49.988;8.182;2024-02-28T06:14:11;2.80;;;2.70;;
21886;SDS011;11108;49.988;8.182;2024-02-28T06:16:36;2.67;;;2.57;;
21886;SDS011;11108;49.988;8.182;2024-02-28T06:19:01;2.87;;;2.77;;
21886;SDS011;11108;49.988;8.182;2024-02-28T06:21:27;2.60;;;2.50;;
21886;SDS011;11108;49.988;8.182;2024-02-28T06:23:52;2.57;;;2.47;;
21886;SDS011;11108;49.988;8.182;2024-02-28T06:26:17;2.83;;;2.63;;
21886;SDS011;11108;49.988;8.182;2024-02-28T06:28:45;2.90;;;2.70;;
21886;SDS011;11108;49.988;8.182;2024-02-28T06:31:17;2.57;;;2.47;;
21886;SDS011;11108;49.988;8.182;2024-02-28T06:33:43;3.03;;;2.90;;
21886;SDS011;11108;49.988;8.182;2024-02-28T06:36:08;2.67;;;2.57;;
21886;SDS011;11108;49.988;8.182;2024-02-28T06:38:33;2.90;;;2.70;;
21886;SDS011;11108;49.988;8.182;2024-02-28T06:41:00;3.10;;;2.90;;
21886;SDS011;11108;49.988;8.182;2024-02-28T06:43:26;2.67;;;2.57;;
21886;SDS011;11108;49.988;8.182;2024-02-28T06:45:51;4.40;;;2.73;;
21886;SDS011;11108;49.988;8.182;2024-02-28T06:48:16;2.57;;;2.37;;
21886;SDS011;11108;49.988;8.182;2024-02-28T06:50:41;2.50;;;2.40;;
21886;SDS011;11108;49.988;8.182;2024-02-28T06:53:06;2.73;;;2.63;;
21886;SDS011;11108;49.988;8.182;2024-02-28T06:55:32;3.00;;;2.80;;
21886;SDS011;11108;49.988;8.182;2024-02-28T06:57:57;3.10;;;2.80;;
21886;SDS011;11108;49.988;8.182;2024-02-28T07:00:22;5.30;;;2.77;;
21886;SDS011;11108;49.988;8.182;2024-02-28T07:02:47;3.37;;;3.07;;
21886;SDS011;11108;49.988;8.182;2024-02-28T07:05:12;2.77;;;2.57;;
21886;SDS011;11108;49.988;8.182;2024-02-28T07:07:38;4.43;;;2.77;;
21886;SDS011;11108;49.988;8.182;2024-02-28T07:10:03;3.00;;;2.60;;
21886;SDS011;11108;49.988;8.182;2024-02-28T07:12:31;3.00;;;2.80;;
21886;SDS011;11108;49.988;8.182;2024-02-28T07:14:57;3.13;;;2.90;;
21886;SDS011;11108;49.988;8.182;2024-02-28T07:17:22;3.00;;;2.70;;
21886;SDS011;11108;49.988;8.182;2024-02-28T07:19:47;2.70;;;2.60;;
21886;SDS011;11108;49.988;8.182;2024-02-28T07:22:12;3.07;;;2.77;;
21886;SDS011;11108;49.988;8.182;2024-02-28T07:24:38;3.17;;;2.97;;
21886;SDS011;11108;49.988;8.182;2024-02-28T07:27:04;2.77;;;2.60;;
21886;SDS011;11108;49.988;8.182;2024-02-28T07:29:29;2.90;;;2.80;;
21886;SDS011;11108;49.988;8.182;2024-02-28T07:31:54;3.10;;;2.90;;
21886;SDS011;11108;49.988;8.182;2024-02-28T07:34:19;2.73;;;2.63;;
21886;SDS011;11108;49.988;8.182;2024-02-28T07:36:45;3.37;;;3.13;;
21886;SDS011;11108;49.988;8.182;2024-02-28T07:39:10;3.20;;;2.73;;
21886;SDS011;11108;49.988;8.182;2024-02-28T07:41:40;2.90;;;2.70;;
21886;SDS011;11108;49.988;8.182;2024-02-28T07:44:06;3.20;;;3.00;;
21886;SDS011;11108;49.988;8.182;2024-02-28T07:46:32;4.37;;;3.00;;
21886;SDS011;11108;49.988;8.182;2024-02-28T07:48:57;3.40;;;3.10;;
21886;SDS011;11108;49.988;8.182;2024-02-28T07:51:22;3.60;;;3.30;;
21886;SDS011;11108;49.988;8.182;2024-02-28T07:53:47;3.10;;;2.90;;
21886;SDS011;11108;49.988;8.182;2024-02-28T07:56:16;3.23;;;3.03;;
21886;SDS011;11108;49.988;8.182;2024-02-28T07:58:42;3.50;;;3.27;;
21886;SDS011;11108;49.988;8.182;2024-02-28T08:01:07;2.60;;;2.50;;
21886;SDS011;11108;49.988;8.182;2024-02-28T08:03:33;3.30;;;2.80;;
21886;SDS011;11108;49.988;8.182;2024-02-28T08:05:58;3.80;;;2.70;;
21886;SDS011;11108;49.988;8.182;2024-02-28T08:08:23;3.50;;;3.20;;
21886;SDS011;11108;49.988;8.182;2024-02-28T08:10:48;2.83;;;2.63;;
21886;SDS011;11108;49.988;8.182;2024-02-28T08:13:14;2.93;;;2.73;;
21886;SDS011;11108;49.988;8.182;2024-02-28T08:15:39;2.60;;;2.50;;
21886;SDS011;11108;49.988;8.182;2024-02-28T08:18:04;4.13;;;3.40;;
21886;SDS011;11108;49.988;8.182;2024-02-28T08:20:29;3.17;;;2.97;;
21886;SDS011;11108;49.988;8.182;2024-02-28T08:22:55;3.43;;;3.23;;
21886;SDS011;11108;49.988;8.182;2024-02-28T08:25:22;3.50;;;3.23;;
21886;SDS011;11108;49.988;8.182;2024-02-28T08:27:47;3.40;;;3.03;;
21886;SDS011;11108;49.988;8.182;2024-02-28T08:30:13;3.37;;;3.07;;
21886;SDS011;11108;49.988;8.182;2024-02-28T08:32:38;2.77;;;2.57;;
21886;SDS011;11108;49.988;8.182;2024-02-28T08:35:03;2.33;;;2.23;;
21886;SDS011;11108;49.988;8.182;2024-02-28T08:37:29;2.87;;;2.67;;
21886;SDS011;11108;49.988;8.182;2024-02-28T08:39:54;3.20;;;2.90;;
21886;SDS011;11108;49.988;8.182;2024-02-28T08:42:23;2.83;;;2.63;;
21886;SDS011;11108;49.988;8.182;2024-02-28T08:44:48;3.17;;;2.97;;
21886;SDS011;11108;49.988;8.182;2024-02-28T08:47:13;3.50;;;3.20;;
21886;SDS011;11108;49.988;8.182;2024-02-28T08:49:39;3.17;;;2.80;;
21886;SDS011;11108;49.988;8.182;2024-02-28T08:52:04;3.20;;;3.00;;
21886;SDS011;11108;49.988;8.182;2024-02-28T08:54:29;3.10;;;2.90;;
21886;SDS011;11108;49.988;8.182;2024-02-28T08:56:55;4.17;;;2.57;;
21886;SDS011;11108;49.988;8.182;2024-02-28T08:59:20;3.13;;;2.77;;
21886;SDS011;11108;49.988;8.182;2024-02-28T09:01:46;3.43;;;3.23;;
21886;SDS011;11108;49.988;8.182;2024-02-28T09:04:12;2.97;;;2.70;;
21886;SDS011;11108;49.988;8.182;2024-02-28T09:06:37;3.00;;;2.63;;
21886;SDS011;11108;49.988;8.182;2024-02-28T09:09:02;2.77;;;2.60;;
21886;SDS011;11108;49.988;8.182;2024-02-28T09:11:28;3.20;;;2.90;;
21886;SDS011;11108;49.988;8.182;2024-02-28T09:13:54;3.23;;;3.03;;
21886;SDS011;11108;49.988;8.182;2024-02-28T09:16:19;3.10;;;2.90;;
21886;SDS011;11108;49.988;8.182;2024-02-28T09:18:45;3.80;;;2.30;;
21886;SDS011;11108;49.988;8.182;2024-02-28T09:21:10;2.57;;;2.40;;
21886;SDS011;11108;49.988;8.182;2024-02-28T09:23:35;3.50;;;2.70;;
21886;SDS011;11108;49.988;8.182;2024-02-28T09:26:04;2.83;;;2.57;;
21886;SDS011;11108;49.988;8.182;2024-02-28T09:28:29;2.40;;;2.30;;
21886;SDS011;11108;49.988;8.182;2024-02-28T09:30:54;3.07;;;2.77;;
21886;SDS011;11108;49.988;8.182;2024-02-28T09:33:19;2.87;;;2.27;;
21886;SDS011;11108;49.988;8.182;2024-02-28T09:35:45;2.77;;;2.57;;
21886;SDS011;11108;49.988;8.182;2024-02-28T09:38:10;2.63;;;2.37;;
21886;SDS011;11108;49.988;8.182;2024-02-28T09:40:35;2.87;;;2.60;;
21886;SDS011;11108;49.988;8.182;2024-02-28T09:43:01;3.03;;;2.57;;
21886;SDS011;11108;49.988;8.182;2024-02-28T09:45:28;2.50;;;2.23;;
21886;SDS011;11108;49.988;8.182;2024-02-28T09:47:56;2.70;;;2.53;;
21886;SDS011;11108;49.988;8.182;2024-02-28T09:50:21;2.80;;;2.57;;
21886;SDS011;11108;49.988;8.182;2024-02-28T09:52:46;2.90;;;2.70;;
21886;SDS011;11108;49.988;8.182;2024-02-28T09:55:12;3.10;;;2.50;;
21886;SDS011;11108;49.988;8.182;2024-02-28T09:57:37;4.10;;;2.40;;
21886;SDS011;11108;49.988;8.182;2024-02-28T10:00:02;2.60;;;2.40;;
21886;SDS011;11108;49.988;8.182;2024-02-28T10:02:28;2.83;;;2.63;;
21886;SDS011;11108;49.988;8.182;2024-02-28T10:04:53;3.33;;;2.30;;
21886;SDS011;11108;49.988;8.182;2024-02-28T10:07:20;4.37;;;2.70;;
21886;SDS011;11108;49.988;8.182;2024-02-28T10:09:46;2.47;;;2.33;;
21886;SDS011;11108;49.988;8.182;2024-02-28T10:12:12;3.00;;;2.67;;
21886;SDS011;11108;49.988;8.182;2024-02-28T10:14:37;2.30;;;2.10;;
21886;SDS011;11108;49.988;8.182;2024-02-28T10:17:03;2.30;;;2.20;;
21886;SDS011;11108;49.988;8.182;2024-02-28T10:19:28;2.40;;;2.30;;
21886;SDS011;11108;49.988;8.182;2024-02-28T10:21:54;3.50;;;2.23;;
21886;SDS011;11108;49.988;8.182;2024-02-28T10:24:20;2.30;;;2.20;;
21886;SDS011;11108;49.988;8.182;2024-02-28T10:26:48;3.07;;;2.77;;
21886;SDS011;11108;49.988;8.182;2024-02-28T10:29:20;2.30;;;2.20;;
21886;SDS011;11108;49.988;8.182;2024-02-28T10:31:45;2.70;;;2.47;;
21886;SDS011;11108;49.988;8.182;2024-02-28T10:34:10;2.27;;;2.10;;
21886;SDS011;11108;49.988;8.182;2024-02-28T10:36:36;5.50;;;2.40;;
21886;SDS011;11108;49.988;8.182;2024-02-28T10:39:01;3.07;;;2.67;;
21886;SDS011;11108;49.988;8.182;2024-02-28T10:41:27;2.60;;;2.40;;
21886;SDS011;11108;49.988;8.182;2024-02-28T10:43:53;2.37;;;2.23;;
21886;SDS011;11108;49.988;8.182;2024-02-28T10:46:19;2.87;;;2.27;;
21886;SDS011;11108;49.988;8.182;2024-02-28T10:48:45;2.97;;;2.03;;
21886;SDS011;11108;49.988;8.182;2024-02-28T10:51:10;2.40;;;2.17;;
21886;SDS011;11108;49.988;8.182;2024-02-28T10:53:41;2.47;;;2.27;;
21886;SDS011;11108;49.988;8.182;2024-02-28T10:56:09;3.33;;;2.53;;
21886;SDS011;11108;49.988;8.182;2024-02-28T10:58:35;2.40;;;2.30;;
21886;SDS011;11108;49.988;8.182;2024-02-28T11:01:03;3.60;;;2.90;;
21886;SDS011;11108;49.988;8.182;2024-02-28T11:03:29;9.17;;;4.87;;
21886;SDS011;11108;49.988;8.182;2024-02-28T11:05:55;9.47;;;6.33;;
21886;SDS011;11108;49.988;8.182;2024-02-28T11:08:21;11.30;;;6.07;;
21886;SDS011;11108;49.988;8.182;2024-02-28T11:10:47;11.93;;;7.00;;
21886;SDS011;11108;49.988;8.182;2024-02-28T11:13:25;12.80;;;7.97;;
21886;SDS011;11108;49.988;8.182;2024-02-28T11:15:51;15.43;;;8.23;;
21886;SDS011;11108;49.988;8.182;2024-02-28T11:18:16;17.17;;;8.63;;
21886;SDS011;11108;49.988;8.182;2024-02-28T11:20:42;13.43;;;7.93;;
21886;SDS011;11108;49.988;8.182;2024-02-28T11:23:09;12.40;;;8.50;;
21886;SDS011;11108;49.988;8.182;2024-02-28T11:25:34;19.57;;;8.07;;
21886;SDS011;11108;49.988;8.182;2024-02-28T11:28:00;14.77;;;8.37;;
21886;SDS011;11108;49.988;8.182;2024-02-28T11:33:28;12.10;;;7.63;;
21886;SDS011;11108;49.988;8.182;2024-02-28T11:35:54;15.70;;;7.73;;
21886;SDS011;11108;49.988;8.182;2024-02-28T11:38:19;15.23;;;8.07;;
21886;SDS011;11108;49.988;8.182;2024-02-28T11:40:48;11.10;;;7.47;;
21886;SDS011;11108;49.988;8.182;2024-02-28T11:43:13;15.27;;;6.93;;
21886;SDS011;11108;49.988;8.182;2024-02-28T11:45:39;15.00;;;7.83;;
21886;SDS011;11108;49.988;8.182;2024-02-28T11:48:06;11.17;;;7.13;;
21886;SDS011;11108;49.988;8.182;2024-02-28T11:50:31;13.07;;;7.20;;
21886;SDS011;11108;49.988;8.182;2024-02-28T11:52:56;12.40;;;7.13;;
21886;SDS011;11108;49.988;8.182;2024-02-28T11:55:24;10.67;;;7.03;;
21886;SDS011;11108;49.988;8.182;2024-02-28T11:57:49;10.47;;;6.33;;
21886;SDS011;11108;49.988;8.182;2024-02-28T12:00:15;12.47;;;6.53;;
21886;SDS011;11108;49.988;8.182;2024-02-28T12:02:40;11.27;;;6.83;;
21886;SDS011;11108;49.988;8.182;2024-02-28T12:05:06;10.00;;;6.53;;
21886;SDS011;11108;49.988;8.182;2024-02-28T12:07:31;13.50;;;7.00;;
21886;SDS011;11108;49.988;8.182;2024-02-28T12:09:57;8.43;;;6.37;;
21886;SDS011;11108;49.988;8.182;2024-02-28T12:12:22;13.10;;;7.03;;
21886;SDS011;11108;49.988;8.182;2024-02-28T12:14:48;12.53;;;7.10;;
21886;SDS011;11108;49.988;8.182;2024-02-28T12:17:16;10.27;;;6.40;;
21886;SDS011;11108;49.988;8.182;2024-02-28T12:19:41;8.17;;;6.57;;
21886;SDS011;11108;49.988;8.182;2024-02-28T12:22:07;8.87;;;5.77;;
21886;SDS011;11108;49.988;8.182;2024-02-28T12:24:33;11.40;;;6.83;;
21886;SDS011;11108;49.988;8.182;2024-02-28T12:26:58;12.00;;;6.87;;
21886;SDS011;11108;49.988;8.182;2024-02-28T12:29:23;12.50;;;6.47;;
21886;SDS011;11108;49.988;8.182;2024-02-28T12:31:48;11.23;;;6.73;;
21886;SDS011;11108;49.988;8.182;2024-02-28T12:34:13;8.47;;;6.00;;
21886;SDS011;11108;49.988;8.182;2024-02-28T12:36:40;9.63;;;5.83;;
21886;SDS011;11108;49.988;8.182;2024-02-28T12:39:05;14.37;;;6.60;;
21886;SDS011;11108;49.988;8.182;2024-02-28T12:41:31;11.13;;;6.40;;
21886;SDS011;11108;49.988;8.182;2024-02-28T12:43:56;8.67;;;5.50;;
21886;SDS011;11108;49.988;8.182;2024-02-28T12:46:21;13.13;;;6.30;;
21886;SDS011;11108;49.988;8.182;2024-02-28T12:48:47;10.80;;;6.73;;
21886;SDS011;11108;49.988;8.182;2024-02-28T12:53:56;15.33;;;6.63;;
21886;SDS011;11108;49.988;8.182;2024-02-28T12:56:21;10.80;;;6.43;;
21886;SDS011;11108;49.988;8.182;2024-02-28T12:58:46;13.27;;;7.10;;
21886;SDS011;11108;49.988;8.182;2024-02-28T13:01:12;10.27;;;6.70;;
21886;SDS011;11108;49.988;8.182;2024-02-28T13:03:37;10.33;;;6.47;;
21886;SDS011;11108;49.988;8.182;2024-02-28T13:06:02;7.97;;;6.23;;
21886;SDS011;11108;49.988;8.182;2024-02-28T13:08:27;8.13;;;6.13;;
21886;SDS011;11108;49.988;8.182;2024-02-28T13:10:52;10.87;;;6.33;;
21886;SDS011;11108;49.988;8.182;2024-02-28T13:13:18;11.60;;;6.87;;
21886;SDS011;11108;49.988;8.182;2024-02-28T13:15:43;15.97;;;6.43;;
21886;SDS011;11108;49.988;8.182;2024-02-28T13:18:10;10.47;;;6.00;;
21886;SDS011;11108;49.988;8.182;2024-02-28T13:20:36;10.43;;;6.77;;
21886;SDS011;11108;49.988;8.182;2024-02-28T13:23:02;9.47;;;5.97;;
21886;SDS011;11108;49.988;8.182;2024-02-28T13:25:28;7.47;;;5.70;;
21886;SDS011;11108;49.988;8.182;2024-02-28T13:27:53;6.47;;;5.07;;
21886;SDS011;11108;49.988;8.182;2024-02-28T13:30:18;11.03;;;5.93;;
21886;SDS011;11108;49.988;8.182;2024-02-28T13:32:44;7.93;;;5.03;;
21886;SDS011;11108;49.988;8.182;2024-02-28T13:35:09;10.47;;;5.67;;
21886;SDS011;11108;49.988;8.182;2024-02-28T13:37:35;8.50;;;5.80;;
21886;SDS011;11108;49.988;8.182;2024-02-28T13:40:02;7.77;;;5.40;;
21886;SDS011;11108;49.988;8.182;2024-02-28T13:42:29;9.30;;;5.57;;
21886;SDS011;11108;49.988;8.182;2024-02-28T13:44:55;7.10;;;5.30;;
21886;SDS011;11108;49.988;8.182;2024-02-28T13:47:20;8.57;;;4.60;;
21886;SDS011;11108;49.988;8.182;2024-02-28T13:49:45;7.37;;;5.33;;
21886;SDS011;11108;49.988;8.182;2024-02-28T13:52:12;7.00;;;5.33;;
21886;SDS011;11108;49.988;8.182;2024-02-28T13:54:37;6.97;;;4.63;;
21886;SDS011;11108;49.988;8.182;2024-02-28T13:57:02;8.83;;;5.70;;
21886;SDS011;11108;49.988;8.182;2024-02-28T13:59:29;7.27;;;4.40;;
21886;SDS011;11108;49.988;8.182;2024-02-28T14:01:58;7.97;;;5.17;;
21886;SDS011;11108;49.988;8.182;2024-02-28T14:04:24;5.33;;;4.83;;
21886;SDS011;11108;49.988;8.182;2024-02-28T14:06:49;6.73;;;4.63;;
21886;SDS011;11108;49.988;8.182;2024-02-28T14:09:15;5.97;;;4.80;;
21886;SDS011;11108;49.988;8.182;2024-02-28T14:11:40;4.97;;;4.37;;
21886;SDS011;11108;49.988;8.182;2024-02-28T14:14:05;5.37;;;4.53;;
21886;SDS011;11108;49.988;8.182;2024-02-28T14:16:30;7.53;;;4.50;;
21886;SDS011;11108;49.988;8.182;2024-02-28T14:18:57;5.23;;;4.17;;
21886;SDS011;11108;49.988;8.182;2024-02-28T14:21:22;5.97;;;4.20;;
21886;SDS011;11108;49.988;8.182;2024-02-28T14:23:49;6.60;;;4.77;;
21886;SDS011;11108;49.988;8.182;2024-02-28T14:26:14;5.00;;;4.13;;
21886;SDS011;11108;49.988;8.182;2024-02-28T14:28:39;4.37;;;3.97;;
21886;SDS011;11108;49.988;8.182;2024-02-28T14:31:05;5.80;;;4.03;;
21886;SDS011;11108;49.988;8.182;2024-02-28T14:33:30;4.93;;;3.77;;
21886;SDS011;11108;49.988;8.182;2024-02-28T14:35:55;4.70;;;4.20;;
21886;SDS011;11108;49.988;8.182;2024-02-28T14:38:21;5.00;;;3.63;;
21886;SDS011;11108;49.988;8.182;2024-02-28T14:40:46;8.17;;;4.17;;